createdAt,value
2023-03-23T15:59:56.099Z,16.68
2023-03-23T16:03:02.597Z,16.60
2023-03-23T16:06:05.936Z,16.53
2023-03-23T16:09:16.197Z,16.45
2023-03-23T16:12:21.903Z,16.39
2023-03-23T16:15:24.779Z,16.34
2023-03-23T16:18:27.517Z,16.25
2023-03-23T16:21:30.695Z,16.16
2023-03-23T16:24:33.721Z,16.06
2023-03-23T16:27:37.067Z,15.98
2023-03-23T16:30:42.602Z,15.91
2023-03-23T16:33:45.402Z,15.86
2023-03-23T16:36:48.230Z,15.81
2023-03-23T16:39:51.070Z,15.72
2023-03-23T16:42:54.528Z,15.64
2023-03-23T16:45:58.205Z,15.55
2023-03-23T16:49:01.072Z,15.48
2023-03-23T16:52:03.975Z,15.39
2023-03-23T16:55:07.870Z,15.31
2023-03-23T16:58:16.888Z,15.25
2023-03-23T17:01:20.230Z,15.19
2023-03-23T17:04:24.806Z,15.12
2023-03-23T17:07:28.482Z,15.06
2023-03-23T17:10:32.266Z,14.98
2023-03-23T17:13:38.468Z,14.91
2023-03-23T17:16:41.669Z,14.86
2023-03-23T17:19:44.575Z,14.83
2023-03-23T17:22:48.278Z,14.78
2023-03-23T17:25:51.732Z,14.75
2023-03-23T17:28:54.585Z,14.69
2023-03-23T17:31:57.531Z,14.64
2023-03-23T17:35:00.758Z,14.60
2023-03-23T17:38:03.738Z,14.61
2023-03-23T17:41:08.212Z,14.63
2023-03-23T17:44:11.265Z,14.63
2023-03-23T17:47:14.263Z,14.57
2023-03-23T17:50:17.647Z,14.53
2023-03-23T17:53:20.613Z,14.56
2023-03-23T17:56:23.451Z,14.56
2023-03-23T17:59:27.567Z,14.60
2023-03-23T18:02:30.514Z,14.64
2023-03-23T18:05:34.737Z,14.67
2023-03-23T18:08:38.374Z,14.67
2023-03-23T18:11:42.310Z,14.68
2023-03-23T18:14:45.207Z,14.64
2023-03-23T18:17:50.674Z,14.57
2023-03-23T18:20:54.930Z,14.52
2023-03-23T18:23:59.874Z,14.49
2023-03-23T18:27:05.988Z,14.52
2023-03-23T18:30:10.728Z,14.56
2023-03-23T18:33:13.605Z,14.55
2023-03-23T18:36:19.597Z,14.57
2023-03-23T18:39:22.661Z,14.65
2023-03-23T18:42:28.373Z,14.73
2023-03-23T18:45:31.327Z,14.77
2023-03-23T18:48:40.693Z,14.76
2023-03-23T18:51:43.615Z,14.72
2023-03-23T18:54:46.634Z,14.69
2023-03-23T18:57:50.323Z,14.70
2023-03-23T19:00:57.330Z,14.70
2023-03-23T19:04:00.430Z,14.67
2023-03-23T19:07:03.626Z,14.62
2023-03-23T19:10:09.904Z,14.58
2023-03-23T19:13:13.634Z,14.58
2023-03-23T19:16:16.523Z,14.60
2023-03-23T19:19:20.294Z,14.60
2023-03-23T19:22:23.504Z,14.58
2023-03-23T19:25:26.988Z,14.59
2023-03-23T19:31:35.995Z,14.58
2023-03-23T19:34:39.582Z,14.60
2023-03-23T19:37:42.685Z,14.58
2023-03-23T19:41:03.892Z,14.57
2023-03-23T19:44:08.679Z,14.53
2023-03-23T19:47:11.791Z,14.51
2023-03-23T19:50:14.759Z,14.50
2023-03-23T19:53:19.229Z,14.46
2023-03-23T19:56:22.776Z,14.43
2023-03-23T19:59:26.381Z,14.41
2023-03-23T20:02:29.285Z,14.40
2023-03-23T20:05:35.100Z,14.38
2023-03-23T20:08:43.347Z,14.36
2023-03-23T20:11:50.050Z,14.36
2023-03-23T20:14:53.334Z,14.34
2023-03-23T20:17:57.986Z,14.31
2023-03-23T20:21:06.822Z,14.28
2023-03-23T20:24:09.782Z,14.28
2023-03-23T20:27:17.522Z,14.29
2023-03-23T20:30:20.709Z,14.30
2023-03-23T20:33:23.620Z,14.31
2023-03-23T20:36:29.937Z,14.29
2023-03-23T20:39:33.782Z,14.25
2023-03-23T20:42:37.277Z,14.22
2023-03-23T20:45:40.137Z,14.23
2023-03-23T20:48:43.091Z,14.27
2023-03-23T20:51:46.772Z,14.30
2023-03-23T20:54:50.941Z,14.36
2023-03-23T20:57:53.830Z,14.38
2023-03-23T21:00:58.566Z,14.37
2023-03-23T21:04:03.276Z,14.37
2023-03-23T21:07:06.415Z,14.36
2023-03-23T21:10:09.339Z,14.29
2023-03-23T21:13:13.653Z,14.22
2023-03-23T21:16:21.788Z,14.15
2023-03-23T21:19:25.033Z,14.07
2023-03-23T21:22:29.144Z,13.98
2023-03-23T21:25:35.423Z,13.88
2023-03-23T21:28:38.433Z,13.81
2023-03-23T21:31:41.955Z,13.73
2023-03-23T21:34:47.526Z,13.66
2023-03-23T21:37:50.577Z,13.60
2023-03-23T21:41:01.735Z,13.55
2023-03-23T21:44:05.614Z,13.54
2023-03-23T21:47:10.935Z,13.50
2023-03-23T21:50:14.770Z,13.38
2023-03-23T21:53:18.723Z,13.25
2023-03-23T21:56:24.454Z,13.14
2023-03-23T21:59:27.650Z,13.03
2023-03-23T22:02:32.312Z,12.93
2023-03-23T22:05:39.965Z,12.85
2023-03-23T22:08:44.736Z,12.81
2023-03-23T22:11:47.802Z,12.79
2023-03-23T22:14:50.797Z,12.79
2023-03-23T22:17:55.300Z,12.79
2023-03-23T22:20:59.128Z,12.86
2023-03-23T22:24:02.363Z,12.96
2023-03-23T22:27:05.382Z,13.04
2023-03-23T22:30:13.679Z,13.09
2023-03-23T22:33:18.002Z,13.15
2023-03-23T22:36:28.024Z,13.19
2023-03-23T22:39:31.762Z,13.20
2023-03-23T22:42:34.959Z,13.19
2023-03-23T22:45:41.244Z,13.19
2023-03-23T22:48:46.305Z,13.17
2023-03-23T22:51:50.230Z,13.15
2023-03-23T22:54:53.674Z,13.12
2023-03-23T22:57:56.752Z,13.09
2023-03-23T23:01:06.309Z,13.07
2023-03-23T23:04:09.605Z,13.04
2023-03-23T23:07:14.382Z,13.01
2023-03-23T23:10:17.463Z,12.97
2023-03-23T23:13:20.718Z,12.92
2023-03-23T23:16:26.469Z,12.87
2023-03-23T23:19:29.467Z,12.85
2023-03-23T23:22:32.937Z,12.81
2023-03-23T23:25:36.921Z,12.79
2023-03-23T23:28:40.532Z,12.84
2023-03-23T23:31:43.999Z,12.88
2023-03-23T23:34:46.936Z,12.88
2023-03-23T23:37:50.459Z,12.89
2023-03-23T23:40:53.668Z,12.87
2023-03-23T23:43:56.800Z,12.85
2023-03-23T23:46:59.701Z,12.83
2023-03-23T23:50:04.149Z,12.86
2023-03-23T23:53:09.984Z,12.90
2023-03-23T23:56:14.053Z,12.92
2023-03-23T23:59:17.496Z,12.95
